Time;durP1;ratioP1;P1;durP2;ratioP2;P2;SDS_P1;SDS_P2;PMS_P1;PMS_P2;Temp;Humidity;BMP_temperature;BMP_pressure;BME280_temperature;BME280_humidity;BME280_pressure;Samples;Min_cycle;Max_cycle;Signal;HPM_P1;HPM_P2
2023/10/21 00:01:19;;;;;;;7.90;6.90;;;;;;;6.99;100.00;93492.34;7400232;19;20377;-89
2023/10/21 00:03:46;;;;;;;5.40;4.87;;;;;;;7.59;100.00;93573.13;7397604;19;20376;-89
2023/10/21 00:06:14;;;;;;;5.43;4.80;;;;;;;7.22;100.00;93505.16;7398185;19;20400;-90
2023/10/21 00:08:41;;;;;;;4.50;3.60;;;;;;;7.29;100.00;93489.38;7396814;19;20428;-90
2023/10/21 00:11:09;;;;;;;4.90;4.20;;;;;;;7.49;100.00;93517.94;7401895;19;20388;-90
2023/10/21 00:13:36;;;;;;;2.80;2.60;;;;;;;7.35;100.00;93489.78;7415279;19;20381;-92
2023/10/21 00:16:04;;;;;;;4.87;4.37;;;;;;;7.78;100.00;93566.00;7416112;19;20467;-90
2023/10/21 00:18:31;;;;;;;2.90;2.70;;;;;;;7.85;100.00;93566.00;7420839;19;20404;-90
2023/10/21 00:20:58;;;;;;;5.33;3.17;;;;;;;8.07;100.00;93596.44;7395656;19;20403;-90
2023/10/21 00:23:25;;;;;;;3.10;2.80;;;;;;;7.57;100.00;93514.16;7394148;19;20946;-90
2023/10/21 00:25:52;;;;;;;3.27;2.40;;;;;;;7.78;100.00;93560.75;7393687;19;20937;-89
2023/10/21 00:28:19;;;;;;;2.97;2.63;;;;;;;7.19;100.00;93455.22;7392530;19;21275;-89
2023/10/21 00:30:48;;;;;;;2.67;2.47;;;;;;;7.97;100.00;93574.25;7395528;19;20485;-89
2023/10/21 00:33:15;;;;;;;3.17;2.10;;;;;;;7.94;100.00;93584.78;7397582;19;20392;-90
2023/10/21 00:35:45;;;;;;;2.90;2.20;;;;;;;7.98;100.00;93583.66;7394302;19;20381;-89
2023/10/21 00:38:13;;;;;;;2.23;2.07;;;;;;;7.85;100.00;93574.63;7401810;19;20416;-88
2023/10/21 00:40:55;;;;;;;2.90;2.40;;;;;;;7.64;100.00;93541.22;7426519;19;20391;-89
2023/10/21 00:43:42;;;;;;;2.67;2.47;;;;;;;7.96;100.00;93593.81;7430751;19;20407;-90
2023/10/21 00:46:08;;;;;;;2.97;2.47;;;;;;;8.30;100.00;93659.97;7424899;19;20410;-89
2023/10/21 00:48:36;;;;;;;4.07;3.17;;;;;;;7.48;100.00;93538.22;7393207;19;20411;-89
2023/10/21 00:51:03;;;;;;;4.30;2.87;;;;;;;7.66;100.00;93580.28;7397537;19;21045;-89
2023/10/21 00:53:31;;;;;;;3.73;3.33;;;;;;;7.29;100.00;93523.53;7395256;19;20737;-90
2023/10/21 00:55:59;;;;;;;3.90;3.23;;;;;;;7.19;100.00;93518.25;7396665;19;20407;-90
2023/10/21 00:58:32;;;;;;;5.00;3.30;;;;;;;7.80;100.00;93600.56;7394758;19;20495;-90
2023/10/21 01:01:03;;;;;;;3.20;2.90;;;;;;;7.65;100.00;93560.38;7397245;19;20392;-90
2023/10/21 01:03:31;;;;;;;1.93;1.73;;;;;;;6.77;100.00;93457.41;7395720;19;20395;-90
2023/10/21 01:09:09;;;;;;;2.67;2.00;;;;;;;7.37;100.00;93526.94;7397976;19;20447;-89
2023/10/21 01:11:37;;;;;;;4.50;2.43;;;;;;;8.19;100.00;93659.22;7396993;19;20461;-89
2023/10/21 01:14:06;;;;;;;2.50;2.30;;;;;;;7.56;100.00;93566.00;7397763;19;20391;-90
2023/10/21 01:16:33;;;;;;;2.20;2.10;;;;;;;8.00;100.00;93633.25;7395548;19;20464;-89
2023/10/21 01:19:00;;;;;;;2.20;2.00;;;;;;;7.88;100.00;93623.88;7396112;19;20404;-89
2023/10/21 01:21:27;;;;;;;6.23;2.40;;;;;;;7.67;100.00;93606.19;7395158;19;20376;-90
2023/10/21 01:23:54;;;;;;;3.00;2.70;;;;;;;7.62;100.00;93622.34;7396538;19;20380;-90
2023/10/21 01:26:21;;;;;;;6.67;4.07;;;;;;;7.46;100.00;93595.63;7401029;19;20385;-90
2023/10/21 01:28:48;;;;;;;9.70;5.60;;;;;;;7.48;100.00;93613.66;7404876;19;20436;-89
2023/10/21 01:31:15;;;;;;;21.73;10.00;;;;;;;6.94;100.00;93545.22;7406396;19;20364;-89
2023/10/21 01:33:42;;;;;;;17.20;8.80;;;;;;;7.58;100.00;93616.31;7404266;19;20756;-90
2023/10/21 01:36:09;;;;;;;19.17;9.60;;;;;;;7.67;100.00;93664.03;7403878;19;20894;-90
2023/10/21 01:38:36;;;;;;;34.50;12.97;;;;;;;7.80;100.00;93690.00;7402702;19;20440;-90
2023/10/21 01:41:03;;;;;;;26.27;9.33;;;;;;;7.79;100.00;93694.50;7402419;19;20385;-90
2023/10/21 01:43:30;;;;;;;22.70;9.30;;;;;;;7.46;100.00;93645.56;7404238;19;20456;-90
2023/10/21 01:45:57;;;;;;;21.03;8.07;;;;;;;7.98;100.00;93732.84;7399605;19;20384;-89
2023/10/21 01:48:24;;;;;;;11.10;5.53;;;;;;;7.22;100.00;93623.38;7400559;19;20416;-89
2023/10/21 01:50:59;;;;;;;5.13;3.83;;;;;;;7.69;100.00;93703.84;7402253;19;20464;-90
2023/10/21 01:53:26;;;;;;;8.10;4.63;;;;;;;7.02;100.00;93619.53;7400932;19;20388;-90
2023/10/21 01:56:03;;;;;;;5.27;3.50;;;;;;;7.06;100.00;93630.81;7402340;19;20404;-89
2023/10/21 01:58:34;;;;;;;5.20;3.73;;;;;;;7.64;100.00;93712.13;7400804;19;20412;-89
2023/10/21 02:01:08;;;;;;;5.60;3.20;;;;;;;7.84;100.00;93748.59;7402699;19;20417;-90
2023/10/21 02:03:35;;;;;;;3.53;3.20;;;;;;;7.57;100.00;93708.69;7401288;19;20395;-90
2023/10/21 02:06:07;;;;;;;7.27;4.00;;;;;;;6.78;100.00;93599.94;7402748;19;20396;-90
2023/10/21 02:08:36;;;;;;;3.03;2.77;;;;;;;6.15;100.00;93523.19;7402510;19;20420;-90
2023/10/21 02:11:03;;;;;;;3.13;2.53;;;;;;;7.15;100.00;93683.78;7402908;19;20377;-90
2023/10/21 02:13:30;;;;;;;5.33;3.47;;;;;;;7.30;100.00;93702.97;7401503;19;20910;-90
2023/10/21 02:15:58;;;;;;;3.30;2.50;;;;;;;7.17;100.00;93704.41;7403555;19;20395;-90
2023/10/21 02:18:25;;;;;;;5.03;3.07;;;;;;;7.28;100.00;93703.34;7399885;19;20436;-89
2023/10/21 02:20:52;;;;;;;5.13;3.17;;;;;;;6.44;100.00;93576.53;7405427;19;20381;-89
2023/10/21 02:23:19;;;;;;;6.00;3.40;;;;;;;6.17;100.00;93560.28;7401461;19;20399;-89
2023/10/21 02:25:46;;;;;;;4.93;2.73;;;;;;;7.41;100.00;93682.75;7403354;19;20400;-90
2023/10/21 02:28:13;;;;;;;3.03;2.50;;;;;;;6.64;100.00;93584.88;7401686;19;20753;-89
2023/10/21 02:30:42;;;;;;;2.23;2.03;;;;;;;6.11;100.00;93529.50;7405393;19;20396;-89
2023/10/21 02:33:09;;;;;;;3.43;2.13;;;;;;;7.40;100.00;93726.66;7403439;19;20408;-89
2023/10/21 02:35:36;;;;;;;7.53;2.40;;;;;;;6.53;100.00;93621.56;7400424;19;20376;-89
2023/10/21 02:38:04;;;;;;;2.70;2.23;;;;;;;6.51;100.00;93610.69;7402880;19;20381;-89
2023/10/21 02:40:31;;;;;;;2.60;2.40;;;;;;;7.51;100.00;93765.41;7400115;19;20391;-88
2023/10/21 02:42:58;;;;;;;3.30;2.60;;;;;;;7.55;100.00;93751.13;7402594;19;20651;-90
2023/10/21 02:45:26;;;;;;;2.37;2.03;;;;;;;7.31;100.00;93730.75;7400652;19;20393;-90
2023/10/21 02:47:53;;;;;;;2.40;2.20;;;;;;;7.94;100.00;93806.50;7400458;19;20421;-90
2023/10/21 02:50:20;;;;;;;4.23;2.90;;;;;;;6.99;100.00;93675.44;7399329;19;20377;-90
2023/10/21 02:52:49;;;;;;;2.50;2.30;;;;;;;7.21;100.00;93700.69;7401293;19;20447;-89
2023/10/21 02:55:16;;;;;;;2.53;2.10;;;;;;;7.41;100.00;93735.31;7399626;19;20452;-90
2023/10/21 02:57:44;;;;;;;2.97;2.70;;;;;;;7.72;100.00;93794.38;7401509;19;20401;-89
2023/10/21 03:00:15;;;;;;;2.20;2.00;;;;;;;7.09;100.00;93703.66;7399038;19;20436;-90
2023/10/21 03:02:42;;;;;;;2.93;2.67;;;;;;;6.41;100.00;93608.00;7401741;19;20760;-89
2023/10/21 03:05:12;;;;;;;3.53;2.40;;;;;;;7.22;100.00;93719.84;7400410;19;20389;-90
2023/10/21 03:07:39;;;;;;;2.80;2.57;;;;;;;6.71;100.00;93655.78;7401557;19;20493;-89
2023/10/21 03:10:07;;;;;;;2.40;2.20;;;;;;;6.94;100.00;93665.28;7397139;19;20412;-89
2023/10/21 03:12:34;;;;;;;2.23;2.03;;;;;;;7.81;100.00;93802.69;7402331;19;20396;-89
2023/10/21 03:15:01;;;;;;;5.17;3.00;;;;;;;6.81;100.00;93660.38;7403344;19;20365;-89
2023/10/21 03:17:28;;;;;;;3.93;2.63;;;;;;;7.89;100.00;93808.75;7403972;19;20369;-89
2023/10/21 03:19:59;;;;;;;2.97;2.77;;;;;;;7.37;100.00;93745.06;7397988;19;20416;-89
2023/10/21 03:22:27;;;;;;;9.13;3.77;;;;;;;7.22;100.00;93728.47;7402008;19;20736;-90
2023/10/21 03:24:54;;;;;;;1.90;1.80;;;;;;;7.24;100.00;93749.13;7399167;19;20396;-90
2023/10/21 03:27:20;;;;;;;3.17;2.90;;;;;;;7.16;100.00;93734.44;7396866;19;20423;-89
2023/10/21 03:29:47;;;;;;;4.40;2.77;;;;;;;6.50;100.00;93640.66;7397117;19;21037;-89
2023/10/21 03:32:15;;;;;;;2.70;2.50;;;;;;;7.71;100.00;93806.78;7398073;19;20409;-89
2023/10/21 03:34:41;;;;;;;3.67;2.70;;;;;;;7.33;100.00;93739.00;7399130;19;20405;-89
2023/10/21 03:37:08;;;;;;;2.63;2.43;;;;;;;7.25;100.00;93726.97;7398588;19;20399;-89
2023/10/21 03:39:35;;;;;;;2.60;2.40;;;;;;;7.26;100.00;93723.97;7397276;19;20416;-89
2023/10/21 03:42:03;;;;;;;3.20;2.10;;;;;;;7.80;100.00;93810.97;7397736;19;20392;-90
2023/10/21 03:44:30;;;;;;;2.33;2.13;;;;;;;7.77;100.00;93803.81;7398336;19;20780;-90
2023/10/21 03:46:57;;;;;;;2.73;2.50;;;;;;;7.58;100.00;93760.91;7395437;19;20377;-90
2023/10/21 03:49:24;;;;;;;2.70;2.30;;;;;;;7.36;100.00;93754.81;7396073;19;20495;-90
2023/10/21 03:51:51;;;;;;;2.20;1.80;;;;;;;7.93;100.00;93826.03;7396843;19;20460;-89
2023/10/21 03:54:18;;;;;;;5.27;2.23;;;;;;;8.04;100.00;93877.97;7396533;19;20424;-89
2023/10/21 03:56:45;;;;;;;2.20;2.00;;;;;;;7.31;100.00;93767.53;7397539;19;20387;-90
2023/10/21 03:59:12;;;;;;;2.97;2.73;;;;;;;7.17;100.00;93741.94;7397480;19;20409;-89
2023/10/21 04:01:39;;;;;;;2.20;2.00;;;;;;;7.46;100.00;93810.41;7396901;19;20396;-89
2023/10/21 04:04:06;;;;;;;2.00;1.80;;;;;;;7.10;100.00;93795.22;7398340;19;20744;-90
2023/10/21 04:06:34;;;;;;;2.20;2.00;;;;;;;7.82;100.00;93884.97;7397237;19;20396;-89
2023/10/21 04:09:01;;;;;;;4.10;2.00;;;;;;;7.77;100.00;93895.88;7397238;19;20397;-89
2023/10/21 04:11:28;;;;;;;2.23;2.07;;;;;;;7.45;100.00;93880.63;7397290;19;20380;-89
2023/10/21 04:13:55;;;;;;;4.27;1.80;;;;;;;7.30;100.00;93853.50;7398556;19;20422;-89
2023/10/21 04:16:22;;;;;;;2.33;1.77;;;;;;;7.49;100.00;93896.44;7396226;19;20377;-89
2023/10/21 04:18:49;;;;;;;2.63;2.17;;;;;;;7.25;100.00;93861.75;7397464;19;20413;-90
2023/10/21 04:21:16;;;;;;;2.00;1.90;;;;;;;7.05;100.00;93842.81;7396243;19;20384;-89
2023/10/21 04:23:43;;;;;;;3.70;2.27;;;;;;;7.14;100.00;93854.91;7397856;19;20416;-90
2023/10/21 04:26:10;;;;;;;2.30;2.10;;;;;;;6.48;100.00;93765.50;7396745;19;20472;-90
2023/10/21 04:28:37;;;;;;;2.80;1.90;;;;;;;7.52;100.00;93914.13;7397041;19;20436;-90
2023/10/21 04:31:04;;;;;;;3.63;2.30;;;;;;;6.21;100.00;93736.78;7396601;19;20423;-90
2023/10/21 04:33:31;;;;;;;4.60;1.97;;;;;;;7.39;100.00;93916.28;7397380;19;20381;-90
2023/10/21 04:35:58;;;;;;;2.07;1.93;;;;;;;6.61;100.00;93818.47;7395869;19;20381;-90
2023/10/21 04:38:25;;;;;;;3.80;1.70;;;;;;;6.61;100.00;93800.84;7397962;19;20449;-90
2023/10/21 04:40:53;;;;;;;6.17;2.47;;;;;;;6.60;100.00;93811.72;7396939;19;20404;-90
2023/10/21 04:43:20;;;;;;;2.30;2.13;;;;;;;6.86;100.00;93879.06;7398124;19;20716;-90
2023/10/21 04:45:47;;;;;;;2.73;2.10;;;;;;;6.67;100.00;93886.03;7396569;19;20392;-90
2023/10/21 04:48:13;;;;;;;2.87;2.47;;;;;;;6.03;100.00;93814.56;7396250;19;20416;-90
2023/10/21 04:50:41;;;;;;;3.83;2.73;;;;;;;6.86;100.00;93929.72;7393405;19;20368;-89
2023/10/21 04:53:09;;;;;;;2.73;2.07;;;;;;;6.44;100.00;93880.19;7396928;19;20404;-90
2023/10/21 04:55:36;;;;;;;3.50;2.47;;;;;;;6.99;100.00;93945.97;7395426;19;20397;-90
2023/10/21 04:58:04;;;;;;;2.20;2.00;;;;;;;6.52;100.00;93887.75;7397241;19;20407;-89
2023/10/21 05:00:31;;;;;;;2.20;2.10;;;;;;;6.84;100.00;93939.09;7403317;19;20409;-89
2023/10/21 05:02:58;;;;;;;3.40;3.10;;;;;;;6.72;100.00;93922.47;7405474;19;20428;-89
2023/10/21 05:05:25;;;;;;;2.27;2.07;;;;;;;6.74;100.00;93930.72;7403640;19;20389;-89
2023/10/21 05:07:53;;;;;;;2.50;1.70;;;;;;;6.77;100.00;93981.75;7404059;19;20380;-90
2023/10/21 05:10:20;;;;;;;2.60;2.20;;;;;;;6.14;100.00;93891.50;7403824;19;20427;-89
2023/10/21 05:12:47;;;;;;;2.37;2.17;;;;;;;5.82;100.00;93854.34;7401419;19;20388;-89
2023/10/21 05:15:15;;;;;;;2.90;2.70;;;;;;;6.15;100.00;93903.50;7403305;19;20388;-90
2023/10/21 05:17:42;;;;;;;2.67;2.47;;;;;;;6.38;100.00;93947.97;7400477;19;20435;-90
2023/10/21 05:20:10;;;;;;;2.53;2.33;;;;;;;6.45;100.00;93940.19;7401793;19;20914;-89
2023/10/21 05:22:37;;;;;;;5.13;2.30;;;;;;;6.31;100.00;93947.91;7402128;19;20405;-89
2023/10/21 05:25:04;;;;;;;6.03;2.50;;;;;;;5.81;100.00;93902.66;7402808;19;20373;-89
2023/10/21 05:27:34;;;;;;;2.37;2.13;;;;;;;6.04;100.00;93939.31;7402011;19;20380;-89
2023/10/21 05:30:02;;;;;;;2.00;1.77;;;;;;;5.49;100.00;93877.91;7397292;19;20424;-89
2023/10/21 05:32:29;;;;;;;2.00;1.80;;;;;;;6.03;100.00;93979.03;7401254;19;20734;-90
2023/10/21 05:34:56;;;;;;;4.53;2.57;;;;;;;6.59;100.00;94028.06;7403337;19;20401;-90
2023/10/21 05:37:23;;;;;;;5.97;5.37;;;;;;;6.36;100.00;94005.28;7401339;19;20388;-90
2023/10/21 05:39:51;;;;;;;2.10;1.90;;;;;;;6.35;100.00;94037.13;7400551;19;20451;-90
2023/10/21 05:42:18;;;;;;;3.00;2.50;;;;;;;6.08;100.00;93984.69;7399505;19;20447;-90
2023/10/21 05:44:46;;;;;;;2.33;2.10;;;;;;;6.06;100.00;93960.69;7403466;19;20451;-90
2023/10/21 05:47:16;;;;;;;2.73;2.53;;;;;;;5.53;100.00;93879.44;7402575;19;20390;-90
2023/10/21 05:49:43;;;;;;;3.67;2.50;;;;;;;5.76;100.00;93933.69;7396074;19;20381;-89
2023/10/21 05:52:10;;;;;;;2.30;2.10;;;;;;;6.14;100.00;94034.97;7401265;19;20389;-90
2023/10/21 05:54:37;;;;;;;2.03;1.93;;;;;;;5.78;100.00;93968.16;7429536;19;20411;-90
2023/10/21 05:57:04;;;;;;;4.20;3.80;;;;;;;6.64;100.00;94060.00;7425544;19;20385;-90
2023/10/21 05:59:32;;;;;;;2.93;2.73;;;;;;;5.39;100.00;93891.59;7420895;19;20438;-90
2023/10/21 06:01:59;;;;;;;7.33;3.30;;;;;;;6.29;100.00;94041.94;7407261;19;20385;-90
2023/10/21 06:04:26;;;;;;;6.80;4.13;;;;;;;5.75;100.00;93961.00;7411463;19;20456;-90
2023/10/21 06:06:56;;;;;;;5.97;5.47;;;;;;;6.46;100.00;94082.66;7412399;19;20443;-90
2023/10/21 06:09:25;;;;;;;7.70;4.90;;;;;;;6.50;100.00;94094.69;7403621;19;20429;-90
2023/10/21 06:11:52;;;;;;;4.43;4.07;;;;;;;6.08;100.00;94039.78;7404732;19;20373;-90
2023/10/21 06:14:21;;;;;;;7.23;6.57;;;;;;;6.17;100.00;94071.75;7402685;19;20401;-90
2023/10/21 06:16:48;;;;;;;7.70;6.67;;;;;;;6.14;100.00;94092.69;7422795;19;20389;-90
2023/10/21 06:19:16;;;;;;;7.27;6.57;;;;;;;6.03;100.00;94073.44;7397923;19;20418;-90
2023/10/21 06:21:43;;;;;;;5.87;5.27;;;;;;;5.99;100.00;94070.72;7401281;19;20420;-90
2023/10/21 06:24:10;;;;;;;5.87;5.27;;;;;;;5.91;100.00;94053.41;7402449;19;20412;-90
2023/10/21 06:26:37;;;;;;;4.23;3.80;;;;;;;6.67;100.00;94156.41;7404580;19;20799;-90
2023/10/21 06:29:04;;;;;;;4.00;3.70;;;;;;;5.63;100.00;93990.78;7397647;19;20519;-90
2023/10/21 06:31:31;;;;;;;3.37;2.93;;;;;;;6.59;100.00;94117.31;7397686;19;20460;-90
2023/10/21 06:33:59;;;;;;;3.90;3.27;;;;;;;6.03;100.00;94034.09;7399211;19;20371;-90
2023/10/21 06:36:27;;;;;;;4.17;3.00;;;;;;;5.96;100.00;94039.22;7400473;19;20400;-90
2023/10/21 06:38:54;;;;;;;3.70;3.40;;;;;;;6.38;100.00;94108.03;7396851;19;20404;-90
2023/10/21 06:41:22;;;;;;;3.23;2.97;;;;;;;6.07;100.00;94082.09;7400992;19;20899;-90
2023/10/21 06:43:51;;;;;;;3.07;2.80;;;;;;;6.67;100.00;94160.91;7399656;19;20393;-91
2023/10/21 06:46:18;;;;;;;3.63;3.33;;;;;;;6.44;100.00;94119.00;7400504;19;20392;-90
2023/10/21 06:48:45;;;;;;;3.87;3.53;;;;;;;5.93;100.00;94057.19;7398934;19;20416;-90
2023/10/21 06:51:13;;;;;;;3.70;3.40;;;;;;;6.06;100.00;94036.75;7397600;19;20375;-91
2023/10/21 06:53:40;;;;;;;4.13;3.50;;;;;;;6.58;100.00;94113.19;7399885;19;20452;-90
2023/10/21 06:56:12;;;;;;;4.20;3.90;;;;;;;6.94;100.00;94130.88;7403446;19;20373;-90
2023/10/21 06:58:39;;;;;;;3.50;3.20;;;;;;;7.16;100.00;94181.09;7430834;19;20428;-90
2023/10/21 07:01:07;;;;;;;5.87;5.33;;;;;;;7.32;100.00;94179.78;7421071;19;20400;-90
2023/10/21 07:03:34;;;;;;;3.53;3.23;;;;;;;6.52;100.00;94045.22;7396593;19;20383;-90
2023/10/21 07:06:01;;;;;;;3.20;2.90;;;;;;;7.16;100.00;94137.16;7401678;19;20942;-90
2023/10/21 07:08:28;;;;;;;3.90;2.47;;;;;;;7.66;100.00;94187.69;7398452;19;20390;-90
2023/10/21 07:10:55;;;;;;;2.30;2.10;;;;;;;7.10;100.00;94086.81;7396565;19;20735;-90
2023/10/21 07:13:22;;;;;;;2.60;1.90;;;;;;;8.06;100.00;94218.53;7395972;19;20385;-90
2023/10/21 07:15:51;;;;;;;1.40;1.30;;;;;;;7.61;100.00;94144.06;7400165;19;20381;-90
2023/10/21 07:18:18;;;;;;;2.23;1.10;;;;;;;8.25;100.00;94218.31;7398661;19;20377;-90
2023/10/21 07:20:46;;;;;;;1.40;1.30;;;;;;;8.73;100.00;94244.69;7399938;19;20388;-90
2023/10/21 07:23:14;;;;;;;1.83;1.10;;;;;;;8.83;100.00;94253.81;7397914;19;20384;-90
2023/10/21 07:25:42;;;;;;;2.10;1.23;;;;;;;8.88;100.00;94227.13;7400251;19;20406;-90
2023/10/21 07:28:10;;;;;;;3.00;1.27;;;;;;;9.13;100.00;94254.38;7398207;19;20393;-90
2023/10/21 07:30:37;;;;;;;1.63;1.23;;;;;;;8.68;100.00;94181.03;7397916;19;20414;-90
2023/10/21 07:33:04;;;;;;;1.10;1.00;;;;;;;9.05;100.00;94233.63;7398067;19;20417;-90
2023/10/21 07:35:32;;;;;;;2.30;1.87;;;;;;;9.03;100.00;94230.59;7394394;19;20408;-90
2023/10/21 07:37:59;;;;;;;2.13;1.47;;;;;;;8.45;100.00;94152.31;7397867;19;20391;-90
2023/10/21 07:40:28;;;;;;;2.50;1.60;;;;;;;9.67;100.00;94324.00;7396283;19;20754;-90
2023/10/21 07:42:55;;;;;;;2.87;1.80;;;;;;;9.07;100.00;94213.66;7397917;19;20388;-90
2023/10/21 07:45:22;;;;;;;3.53;1.33;;;;;;;9.55;100.00;94287.38;7395895;19;20757;-90
2023/10/21 07:47:49;;;;;;;2.17;1.97;;;;;;;9.23;100.00;94231.09;7398262;19;20388;-90
2023/10/21 07:50:17;;;;;;;1.20;1.00;;;;;;;9.84;100.00;94292.78;7393368;19;20918;-90
2023/10/21 07:52:44;;;;;;;1.80;1.10;;;;;;;10.10;100.00;94328.72;7398610;19;20388;-90
2023/10/21 07:55:12;;;;;;;1.17;1.00;;;;;;;9.89;100.00;94281.91;7396657;19;20380;-90
2023/10/21 07:57:40;;;;;;;1.43;1.20;;;;;;;9.76;100.00;94255.84;7395050;19;20787;-90
2023/10/21 08:00:07;;;;;;;1.50;1.27;;;;;;;10.39;100.00;94343.56;7393466;19;20423;-90
2023/10/21 08:02:34;;;;;;;2.00;1.00;;;;;;;10.31;100.00;94313.75;7398236;19;20377;-90
2023/10/21 08:05:03;;;;;;;0.97;0.90;;;;;;;10.58;100.00;94345.88;7397519;19;20424;-90
2023/10/21 08:07:30;;;;;;;1.30;1.20;;;;;;;10.36;100.00;94305.44;7397460;19;20405;-90
2023/10/21 08:09:58;;;;;;;1.33;1.23;;;;;;;10.52;100.00;94328.88;7397080;19;20432;-90
2023/10/21 08:12:25;;;;;;;3.23;1.40;;;;;;;10.53;100.00;94335.66;7398589;19;20718;-90
2023/10/21 08:14:52;;;;;;;1.77;1.10;;;;;;;10.41;100.00;94322.03;7397639;19;20401;-90
2023/10/21 08:17:19;;;;;;;1.00;0.90;;;;;;;10.37;100.00;94327.31;7397006;19;20394;-91
2023/10/21 08:19:47;;;;;;;1.40;1.30;;;;;;;10.46;100.00;94324.34;7392771;19;20419;-90
2023/10/21 08:22:14;;;;;;;1.30;1.20;;;;;;;10.59;100.00;94370.41;7398969;19;20385;-90
2023/10/21 08:24:41;;;;;;;2.70;1.60;;;;;;;10.38;100.00;94339.41;7395581;19;20389;-90
2023/10/21 08:27:10;;;;;;;1.20;1.00;;;;;;;10.64;100.00;94377.97;7397907;19;20468;-90
2023/10/21 08:29:37;;;;;;;1.70;1.20;;;;;;;10.55;100.00;94349.28;7394882;19;20418;-90
2023/10/21 08:32:04;;;;;;;1.37;1.13;;;;;;;10.63;100.00;94356.06;7397259;19;20388;-91
2023/10/21 08:34:32;;;;;;;1.33;1.23;;;;;;;11.10;100.00;94391.28;7396549;19;20388;-90
2023/10/21 08:36:59;;;;;;;0.80;0.80;;;;;;;10.79;100.00;94331.94;7398250;19;20408;-90
2023/10/21 08:39:26;;;;;;;3.67;1.60;;;;;;;11.43;100.00;94415.84;7394497;19;20432;-90
2023/10/21 08:41:53;;;;;;;1.97;1.10;;;;;;;10.97;100.00;94350.47;7398017;19;20947;-90
2023/10/21 08:44:22;;;;;;;2.43;0.93;;;;;;;10.86;100.00;94336.47;7395775;19;20392;-90
2023/10/21 08:46:51;;;;;;;1.00;0.90;;;;;;;10.80;100.00;94327.41;7397565;19;20373;-91
2023/10/21 08:49:19;;;;;;;1.10;1.00;;;;;;;11.51;100.00;94425.31;7394780;19;20397;-90
2023/10/21 08:51:49;;;;;;;1.47;1.23;;;;;;;10.43;100.00;94266.97;7393820;19;20401;-90
2023/10/21 08:54:17;;;;;;;1.10;1.00;;;;;;;11.46;100.00;94420.38;7397154;19;20377;-90
2023/10/21 08:56:44;;;;;;;1.20;1.10;;;;;;;10.37;100.00;94266.56;7394126;19;20922;-90
2023/10/21 08:59:14;;;;;;;1.30;1.20;;;;;;;11.14;100.00;94368.22;7395677;19;20432;-90
2023/10/21 09:01:42;;;;;;;1.40;1.10;;;;;;;11.50;100.00;94402.63;7395412;19;20491;-90
2023/10/21 09:04:13;;;;;;;2.57;1.33;;;;;;;11.82;100.00;94434.38;7395883;19;20389;-91
2023/10/21 09:07:00;;;;;;;1.67;0.90;;;;;;;11.11;100.00;94321.38;7395307;19;20392;-90
2023/10/21 09:09:28;;;;;;;3.00;1.33;;;;;;;11.87;100.00;94406.75;7395178;19;20400;-90
2023/10/21 09:12:14;;;;;;;1.00;0.80;;;;;;;12.32;100.00;94429.75;7395648;19;20388;-90
2023/10/21 09:14:56;;;;;;;1.30;0.90;;;;;;;12.41;100.00;94439.91;7394232;19;20401;-91
2023/10/21 09:17:45;;;;;;;1.20;1.10;;;;;;;12.64;100.00;94458.03;7395704;19;20468;-90
2023/10/21 09:20:16;;;;;;;1.30;1.07;;;;;;;13.02;100.00;94470.34;7393363;19;20424;-90
2023/10/21 09:22:46;;;;;;;1.00;0.90;;;;;;;12.62;100.00;94405.38;7394509;19;20391;-91
2023/10/21 09:25:15;;;;;;;1.47;1.07;;;;;;;12.98;100.00;94431.75;7395526;19;20381;-90
2023/10/21 09:27:55;;;;;;;2.00;1.43;;;;;;;13.22;100.00;94451.31;7395374;19;20377;-90
2023/10/21 09:30:27;;;;;;;1.97;1.77;;;;;;;13.13;100.00;94430.50;7390683;19;20408;-90
2023/10/21 09:33:04;;;;;;;1.10;0.80;;;;;;;13.36;100.00;94474.38;7393331;19;20399;-92
2023/10/21 09:35:31;;;;;;;0.90;0.77;;;;;;;13.25;100.00;94475.19;7393129;19;20376;-90
2023/10/21 09:38:16;;;;;;;1.00;0.90;;;;;;;13.25;100.00;94482.41;7392795;19;20405;-90
2023/10/21 09:40:43;;;;;;;1.07;0.80;;;;;;;12.88;100.00;94422.69;7394156;19;20391;-91
2023/10/21 09:43:11;;;;;;;0.80;0.77;;;;;;;12.30;100.00;94357.84;7397898;19;20377;-90
2023/10/21 09:45:43;;;;;;;1.30;1.20;;;;;;;12.34;100.00;94379.78;7418694;19;20432;-90
2023/10/21 09:48:14;;;;;;;1.10;1.00;;;;;;;12.38;100.00;94367.25;7417691;19;20766;-91
2023/10/21 11:36:04;;;;;;;1.20;1.10;;;;;;;14.16;100.00;94543.97;7397322;19;20367;-89
2023/10/21 11:38:31;;;;;;;1.47;0.83;;;;;;;13.22;100.00;94412.28;7395624;19;20425;-89
2023/10/21 11:41:00;;;;;;;1.10;0.93;;;;;;;14.03;100.00;94516.38;7395930;19;20361;-89
2023/10/21 11:43:28;;;;;;;2.80;0.97;;;;;;;14.48;100.00;94529.66;7395752;19;20384;-89
2023/10/21 11:45:57;;;;;;;0.90;0.80;;;;;;;14.79;100.00;94501.22;7395810;19;20695;-89
2023/10/21 11:48:26;;;;;;;0.97;0.87;;;;;;;15.64;100.00;94582.72;7395875;19;20484;-89
2023/10/21 11:50:53;;;;;;;2.60;1.20;;;;;;;15.88;100.00;94570.19;7394583;19;20397;-88
2023/10/21 11:53:20;;;;;;;1.13;1.03;;;;;;;15.92;100.00;94588.81;7396481;19;20373;-89
2023/10/21 12:28:33;;;;;;;0.90;0.70;;;;;;;17.10;100.00;94604.41;7393824;19;20348;-89
2023/10/21 12:33:59;;;;;;;1.10;1.00;;;;;;;17.52;100.00;94634.16;7393424;19;20442;-89
2023/10/21 12:36:35;;;;;;;1.80;1.70;;;;;;;17.12;100.00;94615.44;7394230;19;20376;-89
2023/10/21 12:41:57;;;;;;;0.90;0.80;;;;;;;15.00;100.00;94590.69;7393310;19;20375;-89
2023/10/21 12:44:26;;;;;;;2.47;1.90;;;;;;;15.05;100.00;94598.25;7393762;19;20369;-89
2023/10/21 12:46:57;;;;;;;1.00;0.90;;;;;;;15.42;100.00;94591.34;7393262;19;20878;-89
2023/10/21 12:49:25;;;;;;;3.30;2.73;;;;;;;17.01;100.00;94628.22;7395751;19;20413;-89
2023/10/21 12:51:56;;;;;;;1.83;1.50;;;;;;;17.40;100.00;94584.75;7391700;19;20365;-89
2023/10/21 12:54:23;;;;;;;2.60;1.40;;;;;;;17.61;100.00;94599.56;7393051;19;20446;-89
2023/10/21 12:56:50;;;;;;;2.13;0.87;;;;;;;16.84;100.00;94623.97;7393385;19;20715;-89
2023/10/21 12:59:19;;;;;;;1.37;0.70;;;;;;;15.98;100.00;94583.78;7392274;19;20412;-89
2023/10/21 13:01:46;;;;;;;3.97;3.57;;;;;;;16.04;100.00;94616.84;7392674;19;20459;-89
2023/10/21 13:04:13;;;;;;;1.03;0.93;;;;;;;16.10;100.00;94652.53;7392880;19;20388;-89
2023/10/21 13:06:42;;;;;;;3.20;2.90;;;;;;;16.09;100.00;94568.38;7395502;19;20383;-89
2023/10/21 13:09:28;;;;;;;1.77;1.17;;;;;;;17.78;100.00;94666.50;7391286;19;20451;-88
2023/10/21 13:11:55;;;;;;;1.67;0.90;;;;;;;17.98;100.00;94611.06;7391126;19;20381;-89
2023/10/21 13:14:23;;;;;;;1.40;1.00;;;;;;;18.76;100.00;94633.34;7393141;19;20357;-89
2023/10/21 13:16:54;;;;;;;1.37;0.93;;;;;;;18.83;97.34;94661.84;7390965;19;20364;-89
2023/10/21 13:19:22;;;;;;;0.80;0.70;;;;;;;18.93;96.09;94641.34;7391695;19;20392;-90
2023/10/21 13:21:53;;;;;;;3.80;0.80;;;;;;;17.63;100.00;94610.63;7404277;19;20749;-89
2023/10/21 13:24:20;;;;;;;1.63;0.80;;;;;;;16.80;100.00;94602.66;7400330;19;20392;-89
2023/10/21 13:26:47;;;;;;;1.00;0.90;;;;;;;16.48;100.00;94621.84;7399497;19;20377;-89
2023/10/21 13:29:14;;;;;;;0.90;0.80;;;;;;;16.00;100.00;94605.44;7398613;19;20401;-89
2023/10/21 13:31:41;;;;;;;1.10;0.90;;;;;;;15.71;100.00;94595.19;7397702;19;20432;-89
2023/10/21 13:34:09;;;;;;;1.40;1.30;;;;;;;15.60;100.00;94619.28;7399429;19;21224;-89
2023/10/21 13:36:36;;;;;;;1.60;1.50;;;;;;;15.55;100.00;94600.31;7400074;19;20383;-89
2023/10/21 13:39:15;;;;;;;1.00;0.80;;;;;;;14.83;100.00;94547.16;7398571;19;20776;-89
2023/10/21 13:41:42;;;;;;;2.53;0.80;;;;;;;15.02;100.00;94575.84;7399828;19;20376;-89
2023/10/21 13:44:09;;;;;;;1.10;1.00;;;;;;;15.16;100.00;94630.81;7399736;19;20412;-89
2023/10/21 13:46:36;;;;;;;2.27;1.53;;;;;;;14.83;100.00;94581.00;7399694;19;20380;-89
2023/10/21 13:49:06;;;;;;;1.20;1.10;;;;;;;14.78;100.00;94579.50;7397712;19;20412;-90
2023/10/21 13:51:33;;;;;;;2.30;1.00;;;;;;;15.12;100.00;94624.78;7397458;19;20368;-89
2023/10/21 13:54:00;;;;;;;1.87;1.00;;;;;;;13.99;100.00;94475.78;7402119;19;20420;-89
2023/10/21 13:56:27;;;;;;;1.50;1.30;;;;;;;13.83;100.00;94465.66;7398445;19;20384;-89
2023/10/21 13:58:56;;;;;;;0.80;0.80;;;;;;;14.58;100.00;94579.34;7397303;19;20404;-89
2023/10/21 14:01:24;;;;;;;2.40;1.03;;;;;;;14.11;100.00;94533.00;7398910;19;20377;-89
2023/10/21 14:03:51;;;;;;;1.40;0.93;;;;;;;14.22;100.00;94580.75;7398111;19;20930;-89